sensor_id;sensor_type;location;lat;lon;timestamp;pressure;altitude;pressure_sealevel;temperature;humidity
14790;BME280;7486;51.010;10.366;2023-07-13T00:00:45;98130.09;;;14.96;67.56
14790;BME280;7486;51.010;10.366;2023-07-13T00:03:31;98128.63;;;15.17;66.29
14790;BME280;7486;51.010;10.366;2023-07-13T00:06:17;98101.47;;;15.20;65.35
14790;BME280;7486;51.010;10.366;2023-07-13T00:09:02;98127.41;;;15.36;65.67
14790;BME280;7486;51.010;10.366;2023-07-13T00:11:54;98140.84;;;15.41;65.46
14790;BME280;7486;51.010;10.366;2023-07-13T00:14:39;98127.75;;;15.40;65.51
14790;BME280;7486;51.010;10.366;2023-07-13T00:17:24;98126.97;;;15.28;65.45
14790;BME280;7486;51.010;10.366;2023-07-13T00:20:11;98135.22;;;15.26;65.08
14790;BME280;7486;51.010;10.366;2023-07-13T00:22:57;98132.19;;;15.34;64.93
14790;BME280;7486;51.010;10.366;2023-07-13T00:25:42;98142.06;;;15.34;64.77
14790;BME280;7486;51.010;10.366;2023-07-13T00:28:28;98151.84;;;15.16;65.67
14790;BME280;7486;51.010;10.366;2023-07-13T00:31:14;98157.03;;;15.23;64.72
14790;BME280;7486;51.010;10.366;2023-07-13T00:33:59;98157.66;;;15.13;65.39
14790;BME280;7486;51.010;10.366;2023-07-13T00:36:44;98159.03;;;15.16;65.59
14790;BME280;7486;51.010;10.366;2023-07-13T00:39:31;98163.78;;;15.14;65.55
14790;BME280;7486;51.010;10.366;2023-07-13T00:42:16;98155.69;;;15.09;65.52
14790;BME280;7486;51.010;10.366;2023-07-13T00:47:57;98160.13;;;14.92;66.38
14790;BME280;7486;51.010;10.366;2023-07-13T00:50:44;98104.06;;;14.29;67.12
14790;BME280;7486;51.010;10.366;2023-07-13T00:53:34;98154.38;;;14.60;66.86
14790;BME280;7486;51.010;10.366;2023-07-13T00:56:19;98128.88;;;14.29;66.06
14790;BME280;7486;51.010;10.366;2023-07-13T00:59:07;98172.69;;;14.56;67.98
14790;BME280;7486;51.010;10.366;2023-07-13T01:01:54;98173.84;;;14.60;66.95
14790;BME280;7486;51.010;10.366;2023-07-13T01:04:39;98166.06;;;14.82;65.84
14790;BME280;7486;51.010;10.366;2023-07-13T01:07:25;98140.44;;;14.69;66.36
14790;BME280;7486;51.010;10.366;2023-07-13T01:10:11;98161.06;;;14.86;65.79
14790;BME280;7486;51.010;10.366;2023-07-13T01:12:57;98158.28;;;14.92;65.27
14790;BME280;7486;51.010;10.366;2023-07-13T01:15:48;98162.53;;;15.05;65.06
14790;BME280;7486;51.010;10.366;2023-07-13T01:18:34;98168.44;;;15.07;64.95
14790;BME280;7486;51.010;10.366;2023-07-13T01:21:19;98164.03;;;15.01;65.50
14790;BME280;7486;51.010;10.366;2023-07-13T01:24:05;98166.16;;;14.99;66.02
14790;BME280;7486;51.010;10.366;2023-07-13T01:26:50;98158.69;;;15.01;66.26
14790;BME280;7486;51.010;10.366;2023-07-13T01:29:39;98149.66;;;15.02;65.84
14790;BME280;7486;51.010;10.366;2023-07-13T01:32:25;98148.16;;;15.06;65.63
14790;BME280;7486;51.010;10.366;2023-07-13T01:35:13;98148.50;;;14.98;65.30
14790;BME280;7486;51.010;10.366;2023-07-13T01:37:58;98146.88;;;14.97;66.19
14790;BME280;7486;51.010;10.366;2023-07-13T01:40:44;98152.22;;;14.97;66.07
14790;BME280;7486;51.010;10.366;2023-07-13T01:43:29;98155.41;;;14.82;66.25
14790;BME280;7486;51.010;10.366;2023-07-13T01:46:14;98150.41;;;14.86;66.08
14790;BME280;7486;51.010;10.366;2023-07-13T01:49:08;98152.94;;;14.81;65.42
14790;BME280;7486;51.010;10.366;2023-07-13T01:51:53;98160.38;;;14.79;65.65
14790;BME280;7486;51.010;10.366;2023-07-13T01:54:39;98154.59;;;14.23;66.43
14790;BME280;7486;51.010;10.366;2023-07-13T01:57:24;98158.28;;;14.11;67.19
14790;BME280;7486;51.010;10.366;2023-07-13T02:00:11;98154.31;;;14.02;67.37
14790;BME280;7486;51.010;10.366;2023-07-13T02:03:05;98141.94;;;13.96;67.27
14790;BME280;7486;51.010;10.366;2023-07-13T02:05:50;98155.16;;;14.14;66.82
14790;BME280;7486;51.010;10.366;2023-07-13T02:08:37;98155.84;;;14.09;67.01
14790;BME280;7486;51.010;10.366;2023-07-13T02:11:22;98158.25;;;13.99;67.32
14790;BME280;7486;51.010;10.366;2023-07-13T02:14:08;98153.16;;;13.86;67.90
14790;BME280;7486;51.010;10.366;2023-07-13T02:16:53;98159.66;;;13.90;67.80
14790;BME280;7486;51.010;10.366;2023-07-13T02:19:38;98158.38;;;13.93;66.83
14790;BME280;7486;51.010;10.366;2023-07-13T02:22:24;98156.53;;;13.63;67.69
14790;BME280;7486;51.010;10.366;2023-07-13T02:25:09;98152.50;;;13.61;68.04
14790;BME280;7486;51.010;10.366;2023-07-13T02:27:55;98157.44;;;13.28;69.16
14790;BME280;7486;51.010;10.366;2023-07-13T02:30:40;98154.41;;;13.24;69.49
14790;BME280;7486;51.010;10.366;2023-07-13T02:33:25;98162.22;;;13.37;68.78
14790;BME280;7486;51.010;10.366;2023-07-13T02:36:12;98157.34;;;13.34;68.65
14790;BME280;7486;51.010;10.366;2023-07-13T02:39:01;98171.22;;;13.36;68.23
14790;BME280;7486;51.010;10.366;2023-07-13T02:41:47;98169.25;;;13.32;68.76
14790;BME280;7486;51.010;10.366;2023-07-13T02:44:33;98165.81;;;13.43;68.27
14790;BME280;7486;51.010;10.366;2023-07-13T02:47:18;98164.88;;;13.55;67.72
14790;BME280;7486;51.010;10.366;2023-07-13T02:50:05;98170.31;;;13.60;67.26
14790;BME280;7486;51.010;10.366;2023-07-13T02:52:50;98175.31;;;13.39;66.87
14790;BME280;7486;51.010;10.366;2023-07-13T02:55:36;98169.19;;;13.20;68.14
14790;BME280;7486;51.010;10.366;2023-07-13T02:58:22;98172.84;;;13.07;69.09
14790;BME280;7486;51.010;10.366;2023-07-13T03:01:08;98168.06;;;12.98;70.10
14790;BME280;7486;51.010;10.366;2023-07-13T03:03:54;98164.72;;;12.84;70.26
14790;BME280;7486;51.010;10.366;2023-07-13T03:06:39;98177.78;;;13.04;69.26
14790;BME280;7486;51.010;10.366;2023-07-13T03:09:25;98180.53;;;12.97;68.41
14790;BME280;7486;51.010;10.366;2023-07-13T03:12:12;98176.72;;;13.05;68.93
14790;BME280;7486;51.010;10.366;2023-07-13T03:14:58;98179.63;;;13.21;68.66
14790;BME280;7486;51.010;10.366;2023-07-13T03:17:44;98179.53;;;13.28;67.92
14790;BME280;7486;51.010;10.366;2023-07-13T03:20:33;98187.34;;;13.23;67.66
14790;BME280;7486;51.010;10.366;2023-07-13T03:23:20;98186.47;;;13.29;67.58
14790;BME280;7486;51.010;10.366;2023-07-13T03:26:19;98195.50;;;13.28;67.70
14790;BME280;7486;51.010;10.366;2023-07-13T03:29:06;98200.22;;;13.26;67.11
14790;BME280;7486;51.010;10.366;2023-07-13T03:31:52;98209.69;;;13.04;68.38
14790;BME280;7486;51.010;10.366;2023-07-13T03:34:39;98214.94;;;13.10;68.20
14790;BME280;7486;51.010;10.366;2023-07-13T03:37:25;98206.44;;;13.20;67.68
14790;BME280;7486;51.010;10.366;2023-07-13T03:40:12;98205.69;;;13.13;67.73
14790;BME280;7486;51.010;10.366;2023-07-13T03:43:00;98199.91;;;13.16;67.94
14790;BME280;7486;51.010;10.366;2023-07-13T03:45:46;98195.41;;;13.16;67.94
14790;BME280;7486;51.010;10.366;2023-07-13T03:48:32;98210.94;;;13.19;68.41
14790;BME280;7486;51.010;10.366;2023-07-13T03:51:18;98215.44;;;13.19;68.76
14790;BME280;7486;51.010;10.366;2023-07-13T03:54:04;98199.25;;;13.20;69.16
14790;BME280;7486;51.010;10.366;2023-07-13T03:56:49;98214.53;;;13.43;68.80
14790;BME280;7486;51.010;10.366;2023-07-13T03:59:36;98219.41;;;13.64;68.37
14790;BME280;7486;51.010;10.366;2023-07-13T04:02:21;98223.69;;;13.65;67.95
14790;BME280;7486;51.010;10.366;2023-07-13T04:05:06;98234.34;;;13.65;68.01
14790;BME280;7486;51.010;10.366;2023-07-13T04:07:52;98232.66;;;13.35;69.02
14790;BME280;7486;51.010;10.366;2023-07-13T04:10:37;98090.94;;;12.25;69.48
14790;BME280;7486;51.010;10.366;2023-07-13T04:13:23;98238.38;;;13.50;70.09
14790;BME280;7486;51.010;10.366;2023-07-13T04:16:09;98233.41;;;14.01;68.20
14790;BME280;7486;51.010;10.366;2023-07-13T04:18:55;98231.28;;;14.33;67.46
14790;BME280;7486;51.010;10.366;2023-07-13T04:21:41;98234.81;;;14.68;64.33
14790;BME280;7486;51.010;10.366;2023-07-13T04:24:26;98219.38;;;14.70;64.90
14790;BME280;7486;51.010;10.366;2023-07-13T04:27:12;98243.25;;;14.77;65.39
14790;BME280;7486;51.010;10.366;2023-07-13T04:29:57;98221.13;;;15.00;65.23
14790;BME280;7486;51.010;10.366;2023-07-13T04:32:43;98229.91;;;15.12;64.20
14790;BME280;7486;51.010;10.366;2023-07-13T04:35:28;98231.53;;;15.13;63.92
14790;BME280;7486;51.010;10.366;2023-07-13T04:38:14;98233.94;;;15.14;63.78
14790;BME280;7486;51.010;10.366;2023-07-13T04:41:01;98235.47;;;15.34;63.10
14790;BME280;7486;51.010;10.366;2023-07-13T04:43:47;98225.19;;;15.54;63.18
14790;BME280;7486;51.010;10.366;2023-07-13T04:46:33;98227.97;;;15.75;62.35
14790;BME280;7486;51.010;10.366;2023-07-13T04:49:18;98226.97;;;15.93;61.69
14790;BME280;7486;51.010;10.366;2023-07-13T04:52:04;98231.09;;;16.12;60.52
14790;BME280;7486;51.010;10.366;2023-07-13T04:54:50;98232.16;;;16.28;60.10
14790;BME280;7486;51.010;10.366;2023-07-13T04:57:35;98226.41;;;16.19;60.17
14790;BME280;7486;51.010;10.366;2023-07-13T05:00:20;98231.59;;;16.26;60.54
14790;BME280;7486;51.010;10.366;2023-07-13T05:03:06;98229.31;;;16.35;59.53
14790;BME280;7486;51.010;10.366;2023-07-13T05:05:56;98229.81;;;16.32;59.81
14790;BME280;7486;51.010;10.366;2023-07-13T05:08:41;98230.44;;;16.39;60.26
14790;BME280;7486;51.010;10.366;2023-07-13T05:11:27;98235.41;;;16.47;60.16
14790;BME280;7486;51.010;10.366;2023-07-13T05:14:12;98238.06;;;16.63;58.82
14790;BME280;7486;51.010;10.366;2023-07-13T05:16:58;98240.41;;;16.77;59.54
14790;BME280;7486;51.010;10.366;2023-07-13T05:19:43;98242.41;;;16.86;58.85
14790;BME280;7486;51.010;10.366;2023-07-13T05:22:28;98243.72;;;17.00;58.48
14790;BME280;7486;51.010;10.366;2023-07-13T05:25:14;98244.72;;;17.16;58.77
14790;BME280;7486;51.010;10.366;2023-07-13T05:27:59;98250.69;;;17.23;58.89
14790;BME280;7486;51.010;10.366;2023-07-13T05:30:46;98237.75;;;17.37;57.40
14790;BME280;7486;51.010;10.366;2023-07-13T05:33:32;98242.25;;;17.31;55.21
14790;BME280;7486;51.010;10.366;2023-07-13T05:36:17;98240.38;;;17.32;57.11
14790;BME280;7486;51.010;10.366;2023-07-13T05:39:03;98246.53;;;17.54;55.41
14790;BME280;7486;51.010;10.366;2023-07-13T05:41:49;98252.16;;;17.52;56.59
14790;BME280;7486;51.010;10.366;2023-07-13T05:44:34;98240.06;;;17.71;55.87
14790;BME280;7486;51.010;10.366;2023-07-13T05:47:19;98255.41;;;17.76;55.27
14790;BME280;7486;51.010;10.366;2023-07-13T05:50:05;98247.78;;;17.90;54.59
14790;BME280;7486;51.010;10.366;2023-07-13T05:52:51;98247.63;;;18.01;54.62
14790;BME280;7486;51.010;10.366;2023-07-13T05:55:43;98242.97;;;17.92;54.13
14790;BME280;7486;51.010;10.366;2023-07-13T05:58:29;98233.16;;;18.02;53.28
14790;BME280;7486;51.010;10.366;2023-07-13T06:01:15;98193.47;;;17.72;54.95
14790;BME280;7486;51.010;10.366;2023-07-13T06:04:01;98263.19;;;18.31;53.94
14790;BME280;7486;51.010;10.366;2023-07-13T06:06:47;98211.78;;;18.07;53.91
14790;BME280;7486;51.010;10.366;2023-07-13T06:09:32;98244.44;;;18.36;52.92
14790;BME280;7486;51.010;10.366;2023-07-13T06:12:18;98223.69;;;18.21;52.29
14790;BME280;7486;51.010;10.366;2023-07-13T06:15:04;98260.63;;;18.78;51.77
14790;BME280;7486;51.010;10.366;2023-07-13T06:17:49;98249.31;;;18.71;51.66
14790;BME280;7486;51.010;10.366;2023-07-13T06:20:35;98251.06;;;18.92;51.73
14790;BME280;7486;51.010;10.366;2023-07-13T06:23:20;98272.31;;;18.99;50.81
14790;BME280;7486;51.010;10.366;2023-07-13T06:26:07;98199.44;;;18.75;49.96
14790;BME280;7486;51.010;10.366;2023-07-13T06:28:52;98273.56;;;19.23;49.77
14790;BME280;7486;51.010;10.366;2023-07-13T06:31:38;98204.72;;;19.07;48.94
14790;BME280;7486;51.010;10.366;2023-07-13T06:34:24;98234.66;;;19.31;47.89
14790;BME280;7486;51.010;10.366;2023-07-13T06:37:10;98260.03;;;19.65;48.43
14790;BME280;7486;51.010;10.366;2023-07-13T06:39:55;98276.16;;;19.65;47.62
14790;BME280;7486;51.010;10.366;2023-07-13T06:42:40;98280.81;;;19.85;45.63
14790;BME280;7486;51.010;10.366;2023-07-13T06:45:26;98286.44;;;19.83;45.77
14790;BME280;7486;51.010;10.366;2023-07-13T06:48:11;98284.31;;;19.90;45.57
14790;BME280;7486;51.010;10.366;2023-07-13T06:50:57;98238.19;;;19.46;44.97
14790;BME280;7486;51.010;10.366;2023-07-13T06:53:42;98286.13;;;19.74;45.95
14790;BME280;7486;51.010;10.366;2023-07-13T06:56:27;98283.50;;;19.85;45.75
14790;BME280;7486;51.010;10.366;2023-07-13T06:59:13;98272.53;;;19.96;44.34
14790;BME280;7486;51.010;10.366;2023-07-13T07:01:58;98278.75;;;20.07;45.37
14790;BME280;7486;51.010;10.366;2023-07-13T07:04:43;98279.84;;;20.41;44.90
14790;BME280;7486;51.010;10.366;2023-07-13T07:07:29;98276.09;;;20.52;45.33
14790;BME280;7486;51.010;10.366;2023-07-13T07:10:14;98290.34;;;20.43;44.53
14790;BME280;7486;51.010;10.366;2023-07-13T07:13:00;98284.75;;;20.54;44.26
14790;BME280;7486;51.010;10.366;2023-07-13T07:15:46;98267.47;;;20.20;43.68
14790;BME280;7486;51.010;10.366;2023-07-13T07:18:31;98292.75;;;20.39;45.00
14790;BME280;7486;51.010;10.366;2023-07-13T07:21:16;98288.22;;;20.55;42.35
14790;BME280;7486;51.010;10.366;2023-07-13T07:24:02;98282.53;;;20.26;41.49
14790;BME280;7486;51.010;10.366;2023-07-13T07:26:47;98276.06;;;20.27;43.18
14790;BME280;7486;51.010;10.366;2023-07-13T07:29:36;98284.47;;;20.61;43.79
14790;BME280;7486;51.010;10.366;2023-07-13T07:32:32;98287.94;;;20.66;43.26
14790;BME280;7486;51.010;10.366;2023-07-13T07:35:20;98291.97;;;20.94;43.15
14790;BME280;7486;51.010;10.366;2023-07-13T07:38:06;98283.66;;;20.86;39.75
14790;BME280;7486;51.010;10.366;2023-07-13T07:40:52;98285.00;;;20.63;41.86
14790;BME280;7486;51.010;10.366;2023-07-13T07:43:40;98279.59;;;20.83;40.96
14790;BME280;7486;51.010;10.366;2023-07-13T07:46:25;98287.09;;;20.96;40.36
14790;BME280;7486;51.010;10.366;2023-07-13T07:49:11;98275.78;;;21.04;41.25
14790;BME280;7486;51.010;10.366;2023-07-13T07:51:56;98275.50;;;21.26;40.73
14790;BME280;7486;51.010;10.366;2023-07-13T07:54:41;98279.28;;;21.20;38.55
14790;BME280;7486;51.010;10.366;2023-07-13T07:57:30;98278.00;;;20.82;39.08
14790;BME280;7486;51.010;10.366;2023-07-13T08:00:19;98271.22;;;21.05;40.76
14790;BME280;7486;51.010;10.366;2023-07-13T08:03:07;98233.84;;;20.73;38.98
14790;BME280;7486;51.010;10.366;2023-07-13T08:05:55;98280.63;;;21.12;40.86
14790;BME280;7486;51.010;10.366;2023-07-13T08:09:01;98273.34;;;21.28;39.66
14790;BME280;7486;51.010;10.366;2023-07-13T08:11:46;98256.13;;;21.19;39.28
14790;BME280;7486;51.010;10.366;2023-07-13T08:14:35;98286.19;;;21.56;38.70
14790;BME280;7486;51.010;10.366;2023-07-13T08:17:36;98283.28;;;21.38;39.63
14790;BME280;7486;51.010;10.366;2023-07-13T08:20:23;98287.75;;;21.67;38.57
14790;BME280;7486;51.010;10.366;2023-07-13T08:23:09;98229.38;;;21.38;38.45
14790;BME280;7486;51.010;10.366;2023-07-13T08:25:55;98285.03;;;21.72;38.90
14790;BME280;7486;51.010;10.366;2023-07-13T08:28:41;98274.63;;;21.46;38.34
14790;BME280;7486;51.010;10.366;2023-07-13T08:31:26;98263.63;;;21.32;38.69
14790;BME280;7486;51.010;10.366;2023-07-13T08:34:11;98288.59;;;21.63;37.81
14790;BME280;7486;51.010;10.366;2023-07-13T08:37:00;98284.44;;;21.86;39.52
14790;BME280;7486;51.010;10.366;2023-07-13T08:39:45;98235.53;;;21.48;39.21
14790;BME280;7486;51.010;10.366;2023-07-13T08:42:46;98251.94;;;22.11;37.69
14790;BME280;7486;51.010;10.366;2023-07-13T08:45:40;98299.81;;;21.80;38.74
14790;BME280;7486;51.010;10.366;2023-07-13T08:48:32;98290.53;;;21.37;38.31
14790;BME280;7486;51.010;10.366;2023-07-13T08:51:34;98281.94;;;21.40;37.49
14790;BME280;7486;51.010;10.366;2023-07-13T08:54:26;98289.78;;;21.96;39.37
14790;BME280;7486;51.010;10.366;2023-07-13T08:57:15;98283.84;;;21.99;38.64
14790;BME280;7486;51.010;10.366;2023-07-13T09:00:02;98281.22;;;22.33;37.65
14790;BME280;7486;51.010;10.366;2023-07-13T09:02:58;98281.22;;;22.33;39.83
14790;BME280;7486;51.010;10.366;2023-07-13T09:05:49;98288.22;;;22.73;36.76
14790;BME280;7486;51.010;10.366;2023-07-13T09:08:55;98288.81;;;22.64;36.98
14790;BME280;7486;51.010;10.366;2023-07-13T09:11:52;98289.19;;;22.82;38.63
14790;BME280;7486;51.010;10.366;2023-07-13T09:14:52;98286.06;;;22.98;36.53
14790;BME280;7486;51.010;10.366;2023-07-13T09:17:48;98289.97;;;23.16;35.95
14790;BME280;7486;51.010;10.366;2023-07-13T09:20:38;98282.97;;;22.52;35.63
14790;BME280;7486;51.010;10.366;2023-07-13T09:23:29;98290.25;;;22.86;36.08
14790;BME280;7486;51.010;10.366;2023-07-13T09:26:24;98286.66;;;22.61;35.01
14790;BME280;7486;51.010;10.366;2023-07-13T09:29:32;98287.56;;;22.52;36.89
14790;BME280;7486;51.010;10.366;2023-07-13T09:32:22;98295.34;;;23.21;36.12
14790;BME280;7486;51.010;10.366;2023-07-13T09:35:12;98288.03;;;23.22;34.93
14790;BME280;7486;51.010;10.366;2023-07-13T09:38:17;98293.50;;;23.40;35.79
14790;BME280;7486;51.010;10.366;2023-07-13T09:44:47;98267.50;;;23.44;35.55
14790;BME280;7486;51.010;10.366;2023-07-13T09:47:39;98306.16;;;23.68;34.82
14790;BME280;7486;51.010;10.366;2023-07-13T09:50:25;98276.09;;;22.70;36.03
14790;BME280;7486;51.010;10.366;2023-07-13T09:53:15;98306.03;;;22.74;35.35
14790;BME280;7486;51.010;10.366;2023-07-13T09:56:00;98289.34;;;22.66;35.65
14790;BME280;7486;51.010;10.366;2023-07-13T09:58:45;98299.28;;;23.00;35.85
14790;BME280;7486;51.010;10.366;2023-07-13T10:01:36;98298.34;;;22.86;36.37
14790;BME280;7486;51.010;10.366;2023-07-13T10:04:30;98302.13;;;22.56;35.76
14790;BME280;7486;51.010;10.366;2023-07-13T10:07:15;98254.91;;;22.53;37.92
14790;BME280;7486;51.010;10.366;2023-07-13T10:10:17;98314.78;;;22.89;35.45
14790;BME280;7486;51.010;10.366;2023-07-13T10:13:03;98299.88;;;22.97;36.94
14790;BME280;7486;51.010;10.366;2023-07-13T10:15:48;98240.41;;;22.39;33.28
14790;BME280;7486;51.010;10.366;2023-07-13T10:18:39;98305.81;;;22.26;36.13
14790;BME280;7486;51.010;10.366;2023-07-13T10:21:30;98307.03;;;22.49;35.72
14790;BME280;7486;51.010;10.366;2023-07-13T10:24:25;98313.59;;;22.71;34.67
14790;BME280;7486;51.010;10.366;2023-07-13T10:27:20;98295.41;;;22.43;35.43
14790;BME280;7486;51.010;10.366;2023-07-13T10:30:17;98306.06;;;22.68;35.85
14790;BME280;7486;51.010;10.366;2023-07-13T10:33:10;98306.50;;;22.42;35.15
14790;BME280;7486;51.010;10.366;2023-07-13T10:39:05;98245.28;;;21.98;35.44
14790;BME280;7486;51.010;10.366;2023-07-13T10:41:56;98307.13;;;22.67;37.87
14790;BME280;7486;51.010;10.366;2023-07-13T10:44:46;98308.97;;;23.06;35.10
14790;BME280;7486;51.010;10.366;2023-07-13T10:47:31;98308.97;;;23.06;35.02
14790;BME280;7486;51.010;10.366;2023-07-13T10:50:20;98276.69;;;23.19;33.96
14790;BME280;7486;51.010;10.366;2023-07-13T10:53:22;98316.72;;;23.89;34.51
14790;BME280;7486;51.010;10.366;2023-07-13T10:56:19;98311.84;;;23.43;33.31
14790;BME280;7486;51.010;10.366;2023-07-13T10:59:27;98304.88;;;23.37;34.16
14790;BME280;7486;51.010;10.366;2023-07-13T11:02:23;98315.38;;;23.67;33.76
14790;BME280;7486;51.010;10.366;2023-07-13T11:08:21;98315.56;;;23.24;34.12
14790;BME280;7486;51.010;10.366;2023-07-13T11:14:34;98313.22;;;23.64;34.54
14790;BME280;7486;51.010;10.366;2023-07-13T11:20:32;98296.41;;;23.73;35.00
14790;BME280;7486;51.010;10.366;2023-07-13T11:23:20;98300.38;;;23.99;34.06
14790;BME280;7486;51.010;10.366;2023-07-13T11:26:50;98304.09;;;24.03;33.84
14790;BME280;7486;51.010;10.366;2023-07-13T11:29:38;98231.91;;;22.85;33.64
14790;BME280;7486;51.010;10.366;2023-07-13T11:32:30;98305.91;;;23.65;34.20
14790;BME280;7486;51.010;10.366;2023-07-13T11:35:21;98291.72;;;23.78;32.92
14790;BME280;7486;51.010;10.366;2023-07-13T11:38:15;98259.38;;;23.68;33.02
14790;BME280;7486;51.010;10.366;2023-07-13T11:41:15;98297.44;;;23.95;31.72
14790;BME280;7486;51.010;10.366;2023-07-13T11:44:22;98294.22;;;24.12;31.26
14790;BME280;7486;51.010;10.366;2023-07-13T11:47:11;98293.78;;;23.39;32.06
14790;BME280;7486;51.010;10.366;2023-07-13T11:49:57;98280.66;;;22.98;32.73
14790;BME280;7486;51.010;10.366;2023-07-13T11:52:43;98289.16;;;23.39;33.54
14790;BME280;7486;51.010;10.366;2023-07-13T11:55:28;98292.16;;;23.66;33.50
14790;BME280;7486;51.010;10.366;2023-07-13T11:58:17;98302.44;;;24.07;33.56
14790;BME280;7486;51.010;10.366;2023-07-13T12:01:05;98293.16;;;23.70;32.16
14790;BME280;7486;51.010;10.366;2023-07-13T12:03:52;98290.94;;;23.96;33.91
14790;BME280;7486;51.010;10.366;2023-07-13T12:06:38;98302.44;;;24.07;32.16
14790;BME280;7486;51.010;10.366;2023-07-13T12:09:26;98288.31;;;23.20;33.28
14790;BME280;7486;51.010;10.366;2023-07-13T12:12:14;98297.22;;;23.20;32.64
14790;BME280;7486;51.010;10.366;2023-07-13T12:15:08;98309.31;;;22.65;33.64
14790;BME280;7486;51.010;10.366;2023-07-13T12:17:54;98300.66;;;22.68;32.83
14790;BME280;7486;51.010;10.366;2023-07-13T12:20:40;98300.91;;;23.01;34.68
14790;BME280;7486;51.010;10.366;2023-07-13T12:23:33;98305.63;;;23.43;32.86
14790;BME280;7486;51.010;10.366;2023-07-13T12:26:19;98293.25;;;23.84;32.48
14790;BME280;7486;51.010;10.366;2023-07-13T12:29:06;98292.84;;;23.96;30.96
14790;BME280;7486;51.010;10.366;2023-07-13T12:31:53;98270.34;;;23.53;31.78
14790;BME280;7486;51.010;10.366;2023-07-13T12:34:51;98303.16;;;23.46;32.69
14790;BME280;7486;51.010;10.366;2023-07-13T12:37:41;98298.78;;;23.27;32.72
14790;BME280;7486;51.010;10.366;2023-07-13T12:40:32;98305.03;;;22.93;32.04
14790;BME280;7486;51.010;10.366;2023-07-13T12:43:22;98298.69;;;22.45;33.16
14790;BME280;7486;51.010;10.366;2023-07-13T12:46:20;98298.16;;;22.38;33.83
14790;BME280;7486;51.010;10.366;2023-07-13T12:49:07;98250.09;;;22.40;33.89
14790;BME280;7486;51.010;10.366;2023-07-13T12:52:14;98296.78;;;23.08;33.62
14790;BME280;7486;51.010;10.366;2023-07-13T12:55:19;98307.91;;;23.02;34.41
14790;BME280;7486;51.010;10.366;2023-07-13T12:58:19;98297.09;;;23.02;33.16
14790;BME280;7486;51.010;10.366;2023-07-13T13:01:07;98304.34;;;23.11;33.09
14790;BME280;7486;51.010;10.366;2023-07-13T13:03:53;98311.56;;;23.21;34.44
14790;BME280;7486;51.010;10.366;2023-07-13T13:06:39;98307.63;;;22.75;33.70
14790;BME280;7486;51.010;10.366;2023-07-13T13:09:25;98311.66;;;23.11;34.21
14790;BME280;7486;51.010;10.366;2023-07-13T13:12:10;98307.13;;;23.01;33.60
14790;BME280;7486;51.010;10.366;2023-07-13T13:14:59;98309.53;;;23.03;33.99
14790;BME280;7486;51.010;10.366;2023-07-13T13:17:45;98300.59;;;23.07;33.51
14790;BME280;7486;51.010;10.366;2023-07-13T13:20:30;98290.84;;;22.78;34.27
14790;BME280;7486;51.010;10.366;2023-07-13T13:23:19;98319.94;;;23.19;33.58
14790;BME280;7486;51.010;10.366;2023-07-13T13:26:10;98293.66;;;22.96;34.01
14790;BME280;7486;51.010;10.366;2023-07-13T13:28:57;98322.88;;;23.23;34.86
14790;BME280;7486;51.010;10.366;2023-07-13T13:31:44;98313.88;;;22.99;34.17
14790;BME280;7486;51.010;10.366;2023-07-13T13:34:29;98324.19;;;22.97;34.49
14790;BME280;7486;51.010;10.366;2023-07-13T13:37:20;98270.53;;;22.56;33.83
14790;BME280;7486;51.010;10.366;2023-07-13T13:40:19;98322.56;;;22.96;33.90
14790;BME280;7486;51.010;10.366;2023-07-13T13:43:23;98316.78;;;22.79;33.33
14790;BME280;7486;51.010;10.366;2023-07-13T13:46:15;98318.13;;;23.10;33.12
14790;BME280;7486;51.010;10.366;2023-07-13T13:49:02;98318.72;;;23.02;33.00
14790;BME280;7486;51.010;10.366;2023-07-13T13:51:48;98253.41;;;22.32;34.62
14790;BME280;7486;51.010;10.366;2023-07-13T13:54:34;98320.56;;;22.78;34.00
14790;BME280;7486;51.010;10.366;2023-07-13T13:57:19;98319.84;;;22.67;34.12
14790;BME280;7486;51.010;10.366;2023-07-13T14:00:05;98324.53;;;22.85;33.07
14790;BME280;7486;51.010;10.366;2023-07-13T14:02:51;98311.81;;;22.91;33.65
14790;BME280;7486;51.010;10.366;2023-07-13T14:05:36;98300.97;;;23.25;33.45
14790;BME280;7486;51.010;10.366;2023-07-13T14:08:22;98312.16;;;23.13;32.67
14790;BME280;7486;51.010;10.366;2023-07-13T14:11:12;98317.09;;;22.72;34.01
14790;BME280;7486;51.010;10.366;2023-07-13T14:13:59;98316.03;;;22.29;34.45
14790;BME280;7486;51.010;10.366;2023-07-13T14:16:46;98320.69;;;22.62;34.90
14790;BME280;7486;51.010;10.366;2023-07-13T14:19:32;98322.72;;;23.09;33.82
14790;BME280;7486;51.010;10.366;2023-07-13T14:22:19;98331.44;;;23.01;33.58
14790;BME280;7486;51.010;10.366;2023-07-13T14:25:05;98312.97;;;23.13;33.49
14790;BME280;7486;51.010;10.366;2023-07-13T14:27:55;98322.56;;;22.96;33.59
14790;BME280;7486;51.010;10.366;2023-07-13T14:30:41;98322.63;;;22.57;33.34
14790;BME280;7486;51.010;10.366;2023-07-13T14:33:26;98324.13;;;22.29;33.90
14790;BME280;7486;51.010;10.366;2023-07-13T14:36:26;98272.13;;;21.64;34.39
14790;BME280;7486;51.010;10.366;2023-07-13T14:39:15;98321.44;;;22.29;35.23
14790;BME280;7486;51.010;10.366;2023-07-13T14:42:01;98326.00;;;22.73;34.59
14790;BME280;7486;51.010;10.366;2023-07-13T14:44:47;98337.31;;;22.75;33.79
14790;BME280;7486;51.010;10.366;2023-07-13T14:47:32;98334.06;;;22.78;33.61
14790;BME280;7486;51.010;10.366;2023-07-13T14:50:21;98323.22;;;22.83;34.12
14790;BME280;7486;51.010;10.366;2023-07-13T14:53:09;98322.53;;;23.30;33.36
14790;BME280;7486;51.010;10.366;2023-07-13T14:55:55;98331.09;;;23.37;32.27
14790;BME280;7486;51.010;10.366;2023-07-13T14:58:40;98317.91;;;23.59;32.90
14790;BME280;7486;51.010;10.366;2023-07-13T15:01:26;98334.47;;;23.52;32.32
14790;BME280;7486;51.010;10.366;2023-07-13T15:04:12;98341.13;;;23.07;33.09
14790;BME280;7486;51.010;10.366;2023-07-13T15:07:03;98334.94;;;22.68;33.33
14790;BME280;7486;51.010;10.366;2023-07-13T15:09:48;98322.47;;;22.33;34.02